NCAR-RAP Real-Time Weather Data

Output produced by METARs form (14 October 2019  22:35 UTC)
found at http://weather.rap.ucar.edu/surface/
 
KPWM 142151Z 14007KT 10SM BKN011 OVC027 14/11 A2992 RMK AO2 SLP132 T01440111
KPWM 142051Z 15009KT 10SM BKN012 BKN025 OVC033 15/12 A2991 RMK AO2 SLP129 T01500117 56006
KPWM 142049Z 14007KT 10SM BKN012 OVC033 15/12 A2991 RMK AO2
KPWM 141951Z 17008KT 10SM BKN042 16/11 A2992 RMK AO2 SLP130 T01560111
KPWM 141851Z 17005KT 10SM FEW020 SCT055 17/11 A2993 RMK AO2 SLP135 T01670106
KPWM 141751Z 17009KT 10SM SCT018 16/11 A2995 RMK AO2 SLP140 T01610111 10172 20122 58020
KPWM 141651Z 19008KT 160V220 10SM SCT018 17/10 A2996 RMK AO2 SLP146 T01670100
KPWM 141551Z 19009KT 10SM FEW015 BKN070 16/09 A2999 RMK AO2 SLP156 T01610094
KPWM 141451Z 14011KT 10SM SCT014 16/11 A3000 RMK AO2 SLP160 T01610111 58003
KPWM 141351Z 17006KT 10SM BKN012 14/12 A3001 RMK AO2 SLP163 T01440117
KPWM 141316Z 00000KT 10SM BKN011 14/11 A3002 RMK AO2 T01390111
KPWM 141251Z 00000KT 10SM OVC008 13/11 A3003 RMK AO2 SLP167 T01330111
KPWM 141151Z 00000KT 10SM BKN007 12/11 A3001 RMK AO2 SLP164 T01220111 10122 20117 53001
KPWM 141108Z 11003KT 10SM OVC005 12/11 A3002 RMK AO2 CIG 004V009 T01170111
KPWM 141051Z 11003KT 5SM BR OVC004 12/11 A3001 RMK AO2 CIG 002V007 SLP163 T01170111
KPWM 141022Z 12003KT 4SM BR OVC002 12/11 A3002 RMK AO2 T01170111
KPWM 141019Z 10003KT 1 1/2SM BR OVC002 12/11 A3001 RMK AO2 T01170111
KPWM 140951Z 00000KT 1/2SM FG VV002 12/11 A3001 RMK AO2 SLP162 T01170111
KPWM 140937Z 00000KT 1/2SM FG VV002 12/11 A3002 RMK AO2 T01170106
KPWM 140919Z 15003KT 1SM BR VV002 12/11 A3001 RMK AO2 T01170106
KPWM 140851Z 14003KT 3/4SM BR VV002 12/11 A3001 RMK AO2 SLP163 T01170111 55010
KPWM 140751Z AUTO 18003KT 1/2SM FG VV002 12/11 A3001 RMK AO2 SLP162 T01170111
KPWM 140713Z AUTO 00000KT 3/4SM BR VV002 12/11 A3002 RMK AO2 T01170111
KPWM 140705Z AUTO 17003KT 1 3/4SM BR OVC002 12/11 A3002 RMK AO2 T01170111
KPWM 140651Z AUTO 00000KT 4SM BR OVC002 12/11 A3002 RMK AO2 SLP165 T01220111
KPWM 140551Z AUTO 20005KT 7SM OVC002 12/11 A3004 RMK AO2 SLP173 T01220111 10122 20089 55002
KPWM 140528Z AUTO 19003KT 4SM BR OVC002 12/11 A3004 RMK AO2 T01170111
KPWM 140507Z AUTO 21003KT 2SM BR OVC003 12/11 A3003 RMK AO2 T01170111
KPWM 140451Z AUTO 00000KT 1SM BR VV003 12/11 A3003 RMK AO2 SLP170 T01170111 401830089
KPWM 140434Z AUTO 00000KT 3/4SM BR OVC002 12/11 A3004 RMK AO2 T01170106
KPWM 140429Z AUTO 00000KT 1 1/2SM BR OVC002 11/10 A3003 RMK AO2 T01110100
KPWM 140351Z 00000KT 10SM OVC003 11/09 A3003 RMK AO2 SLP169 LAST T01060089
KPWM 140333Z 00000KT 10SM BKN004 10/08 A3004 RMK AO2 LAST T01000083
KPWM 140325Z 00000KT 10SM SCT004 09/08 A3004 RMK AO2 LAST T00940078
KPWM 140251Z 00000KT 10SM CLR 10/09 A3005 RMK AO2 SLP175 T01000089 52005 $
KPWM 140151Z 00000KT 10SM CLR 12/09 A3004 RMK AO2 SLP173 T01170094 $
KPWM 140051Z 00000KT 10SM CLR 11/09 A3004 RMK AO2 SLP172 T01110089 $
KPWM 132351Z 00000KT 10SM CLR 13/09 A3003 RMK AO2 SLP170 T01280094 10183 20128 53004 $
KPWM 132251Z 00000KT 10SM SCT200 13/09 A3003 RMK AO2 SLP168 T01330094 $
KPWM 132151Z 00000KT 10SM SCT200 14/09 A3002 RMK AO2 SLP166 T01440094 $
KPWM 132051Z 16007KT 10SM SCT200 16/10 A3002 RMK AO2 SLP166 T01560100 55005 $
KPWM 131951Z 17006KT 10SM BKN046 17/10 A3002 RMK AO2 SLP166 T01720100 $
KPWM 131851Z 14005KT 10SM SCT035 BKN047 18/11 A3003 RMK AO2 SLP167 T01780106 $
KPWM 131751Z 28004KT 10SM OVC043 18/10 A3004 RMK AO2 SLP171 T01780100 10178 20111 56004 $
KPWM 131651Z VRB04KT 10SM SCT028 OVC044 18/10 A3004 RMK AO2 SLP171 T01780100 $
KPWM 131551Z 05003KT 10SM SCT043 OVC060 17/10 A3005 RMK AO2 SLP174 T01720100 $
KPWM 131451Z VRB03KT 10SM SCT055 BKN140 16/10 A3005 RMK AO2 SLP175 T01610100 51009 $
KPWM 131351Z 00000KT 10SM SCT050 BKN065 15/11 A3004 RMK AO2 SLP174 T01500106 $
KPWM 131251Z 30005KT 10SM BKN065 13/11 A3004 RMK AO2 SLP172 T01280106 $
KPWM 131151Z 00000KT 10SM BKN055 11/10 A3002 RMK AO2 SLP166 70001 T01110100 10122 20094 53017 $
KPWM 131051Z 00000KT 10SM SCT080 10/09 A3000 RMK AO2 SLP158 T01000089 $
KPWM 130951Z 00000KT 10SM MIFG FEW070 10/09 A2998 RMK AO2 SLP153 T01000089 $
KPWM 130851Z 24003KT 10SM BKN070 11/10 A2997 RMK AO2 SLP149 T01110100 53003 $
KPWM 130751Z AUTO 00000KT 10SM SCT044 12/10 A2996 RMK AO2 SLP146 T01170100 $
KPWM 130651Z AUTO 00000KT 10SM FEW022 OVC044 12/10 A2995 RMK AO2 SLP143 T01220100 $
KPWM 130644Z AUTO 00000KT 10SM BKN022 OVC044 12/11 A2995 RMK AO2 T01220106 $
KPWM 130551Z AUTO 28003KT 10SM OVC044 12/11 A2996 RMK AO2 SLP146 T01220106 10128 20111 53001 $
KPWM 130451Z AUTO 28004KT 10SM OVC043 12/10 A2995 RMK AO2 SLP142 T01220100 401390100 $
KPWM 130406Z AUTO 00000KT 10SM FEW017 OVC031 12/10 A2995 RMK AO2 T01220100 $
KPWM 130351Z 31004KT 10SM BKN018 OVC031 12/10 A2996 RMK AO2 SLP144 LAST T01220100 $
KPWM 130343Z 31004KT 10SM BKN018 OVC031 12/10 A2996 RMK AO2 T01220100 $
KPWM 130251Z 29004KT 10SM BKN031 11/09 A2996 RMK AO2 SLP145 T01110094 52000 $
KPWM 130151Z 35003KT 10SM BKN047 OVC060 13/10 A2996 RMK AO2 SLP144 T01280100 $
KPWM 130051Z 00000KT 10SM SCT012 OVC047 13/10 A2996 RMK AO2 SLP145 T01280100 $
KPWM 130024Z 01005KT 10SM BKN012 OVC017 13/10 A2996 RMK AO2 T01280100 $
KPWM 122351Z 32003KT 10SM OVC015 13/10 A2996 RMK AO2 SLP145 60000 T01280100 10139 20122 53006 $
KPWM 122339Z 34003KT 10SM OVC016 13/10 A2995 RMK AO2 T01280100 $
KPWM 122326Z 02005KT 10SM OVC014 13/10 A2995 RMK AO2 T01280100 $
KPWM 122251Z 01004KT 10SM OVC015 13/10 A2995 RMK AO2 SLP141 T01280100 $